Time;durP1;ratioP1;P1;durP2;ratioP2;P2;SDS_P1;SDS_P2;PMS_P1;PMS_P2;Temp;Humidity;BMP_temperature;BMP_pressure;BME280_temperature;BME280_humidity;BME280_pressure;Samples;Min_cycle;Max_cycle;Signal;HPM_P1;HPM_P2
2021/12/09 00:01:23;;;;;;;126.68;68.78;;;3.20;1.00;;;;;;5003550;28;20057;-80
2021/12/09 00:03:54;;;;;;;132.40;70.88;;;3.30;1.00;;;;;;5001374;28;20109;-78
2021/12/09 00:06:25;;;;;;;119.32;64.63;;;3.30;1.00;;;;;;4998011;28;20053;-80
2021/12/09 00:08:53;;;;;;;133.40;70.75;;;3.00;1.00;;;;;;4997392;28;20042;-80
2021/12/09 00:11:21;;;;;;;116.47;63.88;;;2.80;1.00;;;;;;4997384;28;20041;-80
2021/12/09 00:13:50;;;;;;;108.05;60.15;;;2.90;1.00;;;;;;4980309;28;20051;-78
2021/12/09 00:16:18;;;;;;;125.03;66.63;;;3.00;99.90;;;;;;4996404;28;20475;-79
2021/12/09 00:18:47;;;;;;;125.15;64.63;;;3.10;99.90;;;;;;4995028;28;20046;-78
2021/12/09 00:21:15;;;;;;;106.10;58.05;;;3.20;99.90;;;;;;4997763;28;20498;-78
2021/12/09 00:23:42;;;;;;;91.20;51.65;;;3.30;99.90;;;;;;4999815;28;20058;-79
2021/12/09 00:26:10;;;;;;;104.68;55.55;;;3.30;28.50;;;;;;5007068;28;20046;-80
2021/12/09 00:28:37;;;;;;;109.63;56.47;;;3.40;1.00;;;;;;5005330;28;20047;-80
2021/12/09 00:31:06;;;;;;;95.07;51.65;;;3.30;1.00;;;;;;5013818;28;20050;-80
2021/12/09 00:33:40;;;;;;;91.72;50.38;;;3.40;1.00;;;;;;5008165;28;20069;-78
2021/12/09 00:36:08;;;;;;;73.53;39.90;;;3.50;1.00;;;;;;4998416;28;20081;-78
2021/12/09 00:38:38;;;;;;;62.00;34.15;;;3.70;1.00;;;;;;5017527;28;20029;-79
2021/12/09 00:41:07;;;;;;;91.75;48.60;;;3.70;1.00;;;;;;5018247;28;20021;-80
2021/12/09 00:43:35;;;;;;;63.28;34.25;;;3.70;1.00;;;;;;5017938;28;20038;-80
2021/12/09 00:46:03;;;;;;;69.30;36.28;;;3.80;1.00;;;;;;5018844;28;20099;-80
2021/12/09 00:48:32;;;;;;;63.75;34.17;;;3.90;1.00;;;;;;5009726;28;20058;-79
2021/12/09 00:51:00;;;;;;;68.10;36.92;;;4.00;1.00;;;;;;5015242;28;20090;-80
2021/12/09 00:53:28;;;;;;;70.30;38.60;;;4.10;1.00;;;;;;5019489;28;20101;-78
2021/12/09 00:55:55;;;;;;;71.78;42.15;;;4.10;1.00;;;;;;5018080;28;20046;-80
2021/12/09 00:58:23;;;;;;;79.22;46.08;;;4.00;1.00;;;;;;5018880;28;20046;-80
2021/12/09 01:00:51;;;;;;;82.10;45.67;;;4.00;1.00;;;;;;4988840;28;20452;-79
2021/12/09 01:03:19;;;;;;;88.47;47.03;;;4.00;1.00;;;;;;4996257;28;20497;-79
2021/12/09 01:05:49;;;;;;;73.68;43.78;;;3.90;1.00;;;;;;4997004;28;20519;-79
2021/12/09 01:08:17;;;;;;;73.22;40.83;;;4.00;1.00;;;;;;4997901;28;20122;-80
2021/12/09 01:10:44;;;;;;;81.85;44.05;;;4.00;1.00;;;;;;4997506;28;20481;-79
2021/12/09 01:13:12;;;;;;;65.85;38.38;;;4.10;1.00;;;;;;4993377;28;20054;-80
2021/12/09 01:15:40;;;;;;;55.65;32.67;;;4.10;1.00;;;;;;4994591;28;20063;-79
2021/12/09 01:18:07;;;;;;;56.08;32.95;;;4.20;1.00;;;;;;4995744;28;20050;-79
2021/12/09 01:20:35;;;;;;;67.85;39.08;;;4.30;1.00;;;;;;4995002;28;20066;-80
2021/12/09 01:23:04;;;;;;;55.60;30.30;;;4.30;1.00;;;;;;4995660;28;20042;-80
2021/12/09 01:25:36;;;;;;;53.92;30.63;;;4.40;1.00;;;;;;4996006;28;20042;-80
2021/12/09 01:28:05;;;;;;;50.50;28.92;;;4.40;1.00;;;;;;4997897;28;20117;-79
2021/12/09 01:30:33;;;;;;;44.95;25.02;;;4.40;99.90;;;;;;4995697;28;20381;-79
2021/12/09 01:33:02;;;;;;;70.28;38.70;;;4.50;99.90;;;;;;4994398;28;20141;-80
2021/12/09 01:35:34;;;;;;;81.22;44.40;;;4.50;99.90;;;;;;4986166;28;20134;-79
2021/12/09 01:38:10;;;;;;;75.07;44.90;;;4.40;1.00;;;;;;4990972;28;20050;-79
2021/12/09 01:40:39;;;;;;;85.15;47.92;;;4.40;1.00;;;;;;4996459;28;20394;-79
2021/12/09 01:43:08;;;;;;;78.63;42.55;;;4.30;1.00;;;;;;4994898;28;20043;-79
2021/12/09 01:45:36;;;;;;;71.47;40.45;;;4.30;1.00;;;;;;4996920;28;20047;-79
2021/12/09 01:48:03;;;;;;;67.55;37.63;;;4.20;1.00;;;;;;4999159;28;20050;-81
2021/12/09 01:50:32;;;;;;;59.13;34.15;;;4.10;1.00;;;;;;4996968;28;20053;-79
2021/12/09 01:52:59;;;;;;;56.63;32.17;;;4.00;1.00;;;;;;4995260;28;20058;-79
2021/12/09 01:55:27;;;;;;;56.28;30.83;;;3.90;1.00;;;;;;4994280;28;20054;-79
2021/12/09 01:57:56;;;;;;;52.35;28.63;;;3.90;9.10;;;;;;4995296;28;20046;-79
2021/12/09 02:00:26;;;;;;;44.03;25.90;;;3.90;96.20;;;;;;4996367;28;20042;-78
2021/12/09 02:02:53;;;;;;;51.75;30.23;;;3.90;99.90;;;;;;4995763;28;20117;-79
2021/12/09 02:05:21;;;;;;;40.90;22.65;;;3.90;99.90;;;;;;4996901;28;20042;-81
2021/12/09 02:07:49;;;;;;;38.38;23.52;;;3.90;99.90;;;;;;5002255;28;20046;-80
2021/12/09 02:10:19;;;;;;;36.78;19.77;;;4.00;99.90;;;;;;4999485;28;20409;-79
2021/12/09 02:12:48;;;;;;;35.97;20.67;;;4.00;99.90;;;;;;4999746;28;20109;-79
2021/12/09 02:15:23;;;;;;;35.00;20.48;;;4.00;99.90;;;;;;4999445;28;20509;-79
2021/12/09 02:17:53;;;;;;;41.42;21.63;;;4.00;99.90;;;;;;5000485;28;20145;-79
2021/12/09 02:20:21;;;;;;;38.22;22.55;;;4.00;99.90;;;;;;5001482;28;20066;-80
2021/12/09 02:22:51;;;;;;;35.58;20.02;;;3.90;99.90;;;;;;5009936;28;20052;-80
2021/12/09 02:25:20;;;;;;;33.30;18.63;;;3.90;99.90;;;;;;5011727;28;20053;-79
2021/12/09 02:27:47;;;;;;;28.92;16.38;;;3.90;99.90;;;;;;5010690;28;20054;-79
2021/12/09 02:30:15;;;;;;;26.73;16.20;;;3.80;99.90;;;;;;4991688;28;20084;-81
2021/12/09 02:32:47;;;;;;;26.50;16.10;;;3.90;1.00;;;;;;5005259;28;20069;-81
2021/12/09 02:35:14;;;;;;;32.97;18.77;;;3.90;1.00;;;;;;4981329;28;20043;-79
2021/12/09 02:37:44;;;;;;;31.67;17.38;;;3.90;1.00;;;;;;4998176;28;20042;-79
2021/12/09 02:40:13;;;;;;;29.50;19.55;;;3.80;1.00;;;;;;4981351;28;20046;-79
2021/12/09 02:42:41;;;;;;;25.20;14.60;;;3.80;1.00;;;;;;4982804;28;20390;-80
2021/12/09 02:45:11;;;;;;;26.92;15.88;;;3.70;1.00;;;;;;4999234;28;20098;-80
2021/12/09 02:47:39;;;;;;;29.63;17.58;;;3.80;1.00;;;;;;4999947;28;20050;-80
2021/12/09 02:50:09;;;;;;;31.20;18.45;;;3.70;1.00;;;;;;5001213;28;20046;-80
2021/12/09 02:52:38;;;;;;;27.88;17.05;;;3.80;1.00;;;;;;4983575;28;20047;-80
2021/12/09 02:55:07;;;;;;;29.80;18.02;;;3.80;1.00;;;;;;5005281;28;20060;-81
2021/12/09 02:57:36;;;;;;;31.02;17.77;;;3.80;1.00;;;;;;5006019;28;20129;-82
2021/12/09 03:00:06;;;;;;;30.88;18.48;;;3.80;1.00;;;;;;4985353;28;20073;-81
2021/12/09 03:02:33;;;;;;;30.00;18.63;;;3.80;1.00;;;;;;4986461;28;20453;-80
2021/12/09 03:05:02;;;;;;;33.35;17.27;;;3.80;1.00;;;;;;4989221;28;20053;-82
2021/12/09 03:07:34;;;;;;;29.83;17.17;;;3.80;1.00;;;;;;5005471;28;20149;-82
2021/12/09 03:10:09;;;;;;;31.27;17.70;;;3.80;1.00;;;;;;5004693;28;20073;-80
2021/12/09 03:12:41;;;;;;;29.50;17.98;;;3.90;1.00;;;;;;5011391;28;20061;-82
2021/12/09 03:15:10;;;;;;;33.05;19.17;;;4.00;1.00;;;;;;5027864;23;20494;-85
2021/12/09 03:17:39;;;;;;;33.03;19.02;;;4.00;1.00;;;;;;5010149;28;20065;-87
2021/12/09 03:20:09;;;;;;;34.30;18.80;;;4.10;1.00;;;;;;5021327;28;20084;-86
2021/12/09 03:22:37;;;;;;;32.10;18.60;;;4.10;1.00;;;;;;5003471;28;20137;-84
2021/12/09 03:25:07;;;;;;;31.83;20.33;;;4.10;1.00;;;;;;5003926;28;20041;-84
2021/12/09 03:27:34;;;;;;;38.47;21.23;;;4.10;1.00;;;;;;5022411;28;20050;-85
2021/12/09 03:30:06;;;;;;;44.92;25.48;;;4.10;1.00;;;;;;5022750;28;20038;-86
2021/12/09 03:32:33;;;;;;;43.33;23.90;;;4.00;1.00;;;;;;5005487;28;20061;-86
2021/12/09 03:35:01;;;;;;;42.30;24.60;;;3.90;1.00;;;;;;5004925;28;20053;-86
2021/12/09 03:37:28;;;;;;;37.53;23.15;;;3.70;1.00;;;;;;5024185;28;20452;-87
2021/12/09 03:39:57;;;;;;;37.83;22.50;;;3.70;1.00;;;;;;5029509;28;20026;-81
2021/12/09 03:42:28;;;;;;;38.38;22.65;;;3.50;99.90;;;;;;5023344;28;20093;-81
2021/12/09 03:44:56;;;;;;;43.15;24.02;;;3.50;99.90;;;;;;5003823;28;20485;-84
2021/12/09 03:47:28;;;;;;;44.05;25.02;;;3.50;1.00;;;;;;5000574;28;20508;-84
2021/12/09 03:49:55;;;;;;;36.38;21.42;;;3.40;1.00;;;;;;5018227;28;20037;-85
2021/12/09 03:52:23;;;;;;;40.00;23.17;;;3.40;1.00;;;;;;4999612;28;20046;-84
2021/12/09 03:54:51;;;;;;;42.00;23.75;;;3.60;1.00;;;;;;5017218;28;20093;-85
2021/12/09 03:57:18;;;;;;;49.58;28.63;;;3.70;1.00;;;;;;5000038;28;20531;-85
2021/12/09 03:59:46;;;;;;;45.75;26.42;;;3.80;99.90;;;;;;5017299;28;20060;-85
2021/12/09 04:02:14;;;;;;;46.13;25.77;;;3.90;99.90;;;;;;5017198;28;20129;-84
2021/12/09 04:04:44;;;;;;;45.75;27.02;;;3.90;78.90;;;;;;5016230;28;20065;-85
2021/12/09 04:07:11;;;;;;;47.30;29.10;;;3.90;1.00;;;;;;5022253;28;20128;-83
2021/12/09 04:09:38;;;;;;;57.17;34.50;;;3.90;1.00;;;;;;5026935;28;20068;-86
2021/12/09 04:12:08;;;;;;;60.05;36.20;;;3.90;1.00;;;;;;5010152;28;20049;-85
2021/12/09 04:14:36;;;;;;;58.63;35.65;;;3.90;1.00;;;;;;5028276;28;20042;-84
2021/12/09 04:17:04;;;;;;;58.22;35.15;;;3.90;1.00;;;;;;5004234;28;20112;-85
2021/12/09 04:19:31;;;;;;;59.40;36.20;;;3.90;1.00;;;;;;5019019;28;20049;-85
2021/12/09 04:22:00;;;;;;;50.03;30.30;;;3.90;1.00;;;;;;5019392;28;20409;-85
2021/12/09 04:24:28;;;;;;;42.67;27.63;;;3.90;1.00;;;;;;5018948;28;20046;-84
2021/12/09 04:26:56;;;;;;;37.45;21.65;;;3.90;1.00;;;;;;5000829;28;20065;-86
2021/12/09 04:29:23;;;;;;;53.00;31.33;;;3.90;1.00;;;;;;5018197;28;20489;-85
2021/12/09 04:31:51;;;;;;;59.85;38.80;;;3.90;1.00;;;;;;5000349;28;20060;-86
2021/12/09 04:34:20;;;;;;;62.47;39.42;;;4.00;1.00;;;;;;5015744;28;20146;-85
2021/12/09 04:36:48;;;;;;;66.72;42.67;;;4.00;1.00;;;;;;5015069;28;20077;-85
2021/12/09 04:39:17;;;;;;;58.33;37.00;;;4.00;1.00;;;;;;5001171;28;20050;-84
2021/12/09 04:41:45;;;;;;;56.78;35.53;;;3.90;1.00;;;;;;4998845;28;20493;-83
2021/12/09 04:44:12;;;;;;;60.58;36.15;;;3.80;1.00;;;;;;4997599;28;20049;-86
2021/12/09 04:46:40;;;;;;;54.25;34.70;;;3.70;99.90;;;;;;5006075;28;20084;-86
2021/12/09 04:49:08;;;;;;;69.45;40.22;;;3.80;99.90;;;;;;5016459;28;20046;-85
2021/12/09 04:51:36;;;;;;;74.75;42.75;;;3.90;99.90;;;;;;5000075;28;20050;-86
2021/12/09 04:54:04;;;;;;;65.97;42.30;;;3.90;99.90;;;;;;5002038;28;20042;-87
2021/12/09 04:56:34;;;;;;;83.35;51.05;;;4.00;99.90;;;;;;5020263;28;20510;-85
2021/12/09 04:59:01;;;;;;;78.00;44.80;;;3.90;99.90;;;;;;5020456;28;20409;-87
2021/12/09 05:01:29;;;;;;;78.45;47.95;;;4.00;87.80;;;;;;5001599;28;20569;-87
2021/12/09 05:03:57;;;;;;;74.10;46.55;;;4.00;65.60;;;;;;5019153;28;20042;-85
2021/12/09 05:06:24;;;;;;;79.85;49.85;;;3.90;21.70;;;;;;5002389;28;20046;-86
2021/12/09 05:08:52;;;;;;;79.40;51.78;;;3.90;97.50;;;;;;5019410;28;20065;-85
2021/12/09 05:11:32;;;;;;;101.85;61.88;;;3.80;99.90;;;;;;5020358;28;20512;-85
2021/12/09 05:14:01;;;;;;;87.68;51.90;;;3.80;99.90;;;;;;5004063;28;20045;-86
2021/12/09 05:16:29;;;;;;;91.10;54.08;;;3.70;99.90;;;;;;5024247;28;20411;-86
2021/12/09 05:18:58;;;;;;;108.38;64.97;;;3.70;99.90;;;;;;5013083;28;20054;-85
2021/12/09 05:21:29;;;;;;;100.47;60.40;;;3.80;1.00;;;;;;5009119;28;20058;-83
2021/12/09 05:23:57;;;;;;;93.45;59.58;;;3.80;1.00;;;;;;5004234;28;20457;-84
2021/12/09 05:26:30;;;;;;;112.10;69.18;;;3.80;99.90;;;;;;5020092;28;20042;-84
2021/12/09 05:28:58;;;;;;;120.93;74.72;;;3.70;99.90;;;;;;5007321;28;20061;-85
2021/12/09 05:34:16;;;;;;;111.68;67.07;;;3.80;1.00;;;;;;5026703;28;20497;-84
2021/12/09 05:36:44;;;;;;;116.97;69.78;;;3.80;1.00;;;;;;5017278;28;20050;-84
2021/12/09 05:39:12;;;;;;;87.45;52.45;;;3.90;1.00;;;;;;5020552;28;20056;-81
2021/12/09 05:41:40;;;;;;;109.85;63.22;;;3.90;1.00;;;;;;5006330;28;20239;-84
2021/12/09 05:44:08;;;;;;;128.90;75.22;;;4.00;1.00;;;;;;5034923;28;20038;-84
2021/12/09 05:46:39;;;;;;;252.55;141.65;;;4.10;1.00;;;;;;5028215;28;20114;-85
2021/12/09 05:49:07;;;;;;;192.65;105.05;;;4.10;99.90;;;;;;5029593;28;20146;-83
2021/12/09 05:51:35;;;;;;;184.50;100.57;;;4.00;99.90;;;;;;5024287;28;20046;-84
2021/12/09 05:54:03;;;;;;;201.13;106.35;;;4.20;1.00;;;;;;5007358;28;20118;-84
2021/12/09 05:56:30;;;;;;;371.48;220.60;;;4.30;1.00;;;;;;5023035;28;20072;-85
2021/12/09 05:58:58;;;;;;;323.70;187.48;;;4.30;99.90;;;;;;5023703;28;20049;-83
2021/12/09 06:01:26;;;;;;;258.92;143.80;;;4.30;99.90;;;;;;5028052;28;20041;-84
2021/12/09 06:03:55;;;;;;;188.63;107.28;;;4.20;99.90;;;;;;5023821;28;20442;-83
2021/12/09 06:06:22;;;;;;;215.45;121.22;;;4.20;99.90;;;;;;5006328;28;20052;-84
2021/12/09 06:08:50;;;;;;;168.65;96.35;;;4.20;99.90;;;;;;5006944;28;20136;-83
2021/12/09 06:11:18;;;;;;;259.08;139.25;;;4.30;99.90;;;;;;5025296;28;20388;-83
2021/12/09 06:13:47;;;;;;;265.83;146.73;;;4.30;99.90;;;;;;5025691;28;20117;-85
2021/12/09 06:16:15;;;;;;;240.95;133.98;;;4.30;99.90;;;;;;5021717;28;20054;-83
2021/12/09 06:18:43;;;;;;;189.50;109.75;;;4.40;1.00;;;;;;5021987;28;20042;-85
2021/12/09 06:21:12;;;;;;;187.80;104.30;;;4.60;1.00;;;;;;5005733;28;20045;-85
2021/12/09 06:23:40;;;;;;;229.20;127.05;;;4.70;99.90;;;;;;5005553;28;20072;-85
2021/12/09 06:26:07;;;;;;;149.10;85.28;;;4.80;95.30;;;;;;5019910;28;20038;-85
2021/12/09 06:28:35;;;;;;;141.38;77.90;;;5.00;1.00;;;;;;5020369;28;20046;-85
2021/12/09 06:31:03;;;;;;;106.05;59.47;;;5.30;1.00;;;;;;5024408;28;20564;-83
2021/12/09 06:33:30;;;;;;;119.80;66.45;;;5.60;1.00;;;;;;5025461;28;20041;-86
2021/12/09 06:35:58;;;;;;;83.03;47.90;;;5.80;99.90;;;;;;5019536;28;20038;-86
2021/12/09 06:38:27;;;;;;;70.75;38.63;;;6.10;67.80;;;;;;5022971;28;20053;-84
2021/12/09 06:40:54;;;;;;;59.53;32.85;;;6.40;1.00;;;;;;5004753;28;20485;-84
2021/12/09 06:43:23;;;;;;;38.13;21.55;;;6.80;1.00;;;;;;5021457;28;20042;-83
2021/12/09 06:45:51;;;;;;;30.70;16.45;;;7.30;1.00;;;;;;5021242;28;20037;-83
2021/12/09 06:48:18;;;;;;;18.33;9.68;;;7.70;99.90;;;;;;5024796;28;20052;-85
2021/12/09 06:50:46;;;;;;;17.75;9.38;;;8.20;99.90;;;;;;5013841;28;20049;-85
2021/12/09 06:53:14;;;;;;;19.25;9.77;;;8.50;22.60;;;;;;5032038;28;20101;-85
2021/12/09 06:55:44;;;;;;;15.45;8.55;;;8.70;1.00;;;;;;5034201;28;20049;-84
2021/12/09 06:58:12;;;;;;;13.95;7.53;;;8.90;1.00;;;;;;5021577;28;20145;-85
2021/12/09 07:00:41;;;;;;;15.15;8.60;;;9.10;1.00;;;;;;5023276;28;20052;-83
2021/12/09 07:03:09;;;;;;;16.55;9.30;;;9.10;1.00;;;;;;5023109;28;20046;-85
2021/12/09 07:05:37;;;;;;;16.90;8.75;;;9.20;1.00;;;;;;5021807;28;20485;-85
2021/12/09 07:08:05;;;;;;;18.70;10.43;;;9.30;1.00;;;;;;5030845;28;20049;-86
2021/12/09 07:10:33;;;;;;;17.25;10.25;;;9.40;1.00;;;;;;5035172;28;20052;-85
2021/12/09 07:13:03;;;;;;;14.70;8.60;;;9.40;1.00;;;;;;5019916;28;20045;-86
2021/12/09 07:15:31;;;;;;;17.23;8.98;;;9.50;1.00;;;;;;5035492;28;20114;-86
2021/12/09 07:17:58;;;;;;;17.15;9.90;;;9.60;1.00;;;;;;5036464;28;20046;-86
2021/12/09 07:20:27;;;;;;;15.52;9.35;;;9.70;1.00;;;;;;5036058;28;20050;-86
2021/12/09 07:22:55;;;;;;;12.27;7.00;;;9.80;1.00;;;;;;5017593;28;20042;-85
2021/12/09 07:25:25;;;;;;;12.05;7.63;;;9.90;1.00;;;;;;5034867;28;20032;-86
2021/12/09 07:27:53;;;;;;;13.13;8.05;;;10.00;1.00;;;;;;5018517;28;20038;-86
2021/12/09 07:30:24;;;;;;;15.48;9.35;;;10.10;1.00;;;;;;5033943;28;20037;-86
2021/12/09 07:32:51;;;;;;;20.27;11.93;;;10.20;1.00;;;;;;5034183;28;20050;-87
2021/12/09 07:35:19;;;;;;;54.75;34.22;;;10.40;1.00;;;;;;5016218;28;20061;-86
2021/12/09 07:37:47;;;;;;;22.20;14.52;;;10.50;1.00;;;;;;5035080;28;20103;-83
2021/12/09 07:40:18;;;;;;;33.67;20.73;;;10.60;1.00;;;;;;5028938;28;20042;-84
2021/12/09 07:42:47;;;;;;;26.33;15.23;;;10.60;1.00;;;;;;5021634;28;20046;-85
2021/12/09 07:45:15;;;;;;;15.45;8.98;;;10.70;1.00;;;;;;5022351;28;20188;-87
2021/12/09 07:47:45;;;;;;;11.88;6.70;;;10.70;1.00;;;;;;5032740;28;20034;-85
2021/12/09 07:50:15;;;;;;;13.00;7.03;;;10.90;99.90;;;;;;5037502;28;20030;-85
2021/12/09 07:52:45;;;;;;;8.85;5.63;;;11.00;99.90;;;;;;5037810;28;20129;-84
2021/12/09 07:55:13;;;;;;;9.98;5.95;;;11.10;99.90;;;;;;5024041;28;20077;-83
2021/12/09 07:57:41;;;;;;;10.10;5.95;;;11.30;99.90;;;;;;5023137;28;20046;-86
2021/12/09 08:00:12;;;;;;;15.65;7.88;;;11.40;99.90;;;;;;5022102;28;20050;-86
2021/12/09 08:02:40;;;;;;;12.45;6.68;;;11.70;99.90;;;;;;5021789;28;20050;-85
2021/12/09 08:05:10;;;;;;;10.23;5.45;;;11.70;99.90;;;;;;5003014;28;20081;-85
2021/12/09 08:07:41;;;;;;;10.88;5.65;;;11.70;99.90;;;;;;5020959;28;20048;-86
2021/12/09 08:10:10;;;;;;;10.10;6.30;;;11.70;99.90;;;;;;5018845;28;20382;-84
2021/12/09 08:12:38;;;;;;;12.07;5.75;;;11.60;99.90;;;;;;5019082;28;20041;-86
2021/12/09 08:15:10;;;;;;;14.85;8.95;;;11.60;99.90;;;;;;5001553;28;20494;-85
2021/12/09 08:18:01;;;;;;;14.60;8.15;;;11.60;99.90;;;;;;5001941;28;20413;-87
2021/12/09 08:20:31;;;;;;;17.63;9.90;;;11.60;99.90;;;;;;5011476;28;20077;-84
2021/12/09 08:22:59;;;;;;;20.27;12.15;;;11.60;99.90;;;;;;5002959;28;20042;-86
2021/12/09 08:25:27;;;;;;;18.13;11.45;;;11.70;99.90;;;;;;5018952;28;20073;-87
2021/12/09 08:27:54;;;;;;;18.50;10.18;;;11.70;99.90;;;;;;5020146;28;20042;-84
2021/12/09 08:30:25;;;;;;;13.63;7.78;;;11.80;99.90;;;;;;5020223;28;20092;-86
2021/12/09 08:32:53;;;;;;;11.50;6.82;;;11.80;99.90;;;;;;5009975;28;20050;-85
2021/12/09 08:35:21;;;;;;;11.80;6.90;;;11.80;99.90;;;;;;5007213;28;20053;-84
2021/12/09 08:37:51;;;;;;;9.10;5.88;;;11.80;99.90;;;;;;5002262;28;20053;-85
2021/12/09 08:40:20;;;;;;;10.00;6.13;;;11.80;99.90;;;;;;5027593;28;20053;-84
2021/12/09 08:42:50;;;;;;;10.85;6.43;;;11.80;99.90;;;;;;5015744;28;20096;-83
2021/12/09 08:45:19;;;;;;;11.10;6.45;;;11.90;99.90;;;;;;5019568;28;20489;-85
2021/12/09 08:47:47;;;;;;;12.90;7.82;;;11.90;99.90;;;;;;5020766;28;20034;-85
2021/12/09 08:50:16;;;;;;;9.82;5.70;;;12.00;99.90;;;;;;5038632;28;20042;-85
2021/12/09 08:52:44;;;;;;;9.52;5.25;;;12.00;99.90;;;;;;5038956;28;20110;-85
2021/12/09 08:55:12;;;;;;;10.30;5.65;;;12.00;99.90;;;;;;5013019;28;20046;-86
2021/12/09 08:57:40;;;;;;;7.32;4.60;;;12.00;99.90;;;;;;5012643;28;20053;-86
2021/12/09 09:00:10;;;;;;;7.25;4.63;;;12.00;99.90;;;;;;5031886;28;20046;-85
2021/12/09 09:02:40;;;;;;;8.38;4.60;;;12.00;99.90;;;;;;5021353;28;20110;-85
2021/12/09 09:05:11;;;;;;;6.40;3.65;;;12.00;99.90;;;;;;5037314;28;20109;-85
2021/12/09 09:07:39;;;;;;;7.40;4.18;;;12.00;99.90;;;;;;5037937;28;20053;-84
2021/12/09 09:10:08;;;;;;;6.50;4.13;;;11.90;99.90;;;;;;5036085;28;20042;-87
2021/12/09 09:12:38;;;;;;;6.32;3.90;;;11.80;99.90;;;;;;5037916;28;20089;-85
2021/12/09 09:15:08;;;;;;;5.57;3.38;;;11.80;99.90;;;;;;5019628;28;20057;-87
2021/12/09 09:17:37;;;;;;;6.97;4.05;;;11.80;99.90;;;;;;5036188;28;20030;-82
2021/12/09 09:20:06;;;;;;;11.77;5.43;;;11.80;99.90;;;;;;5033829;28;20094;-81
2021/12/09 09:22:33;;;;;;;13.10;8.73;;;11.80;99.90;;;;;;5036060;28;20042;-82
2021/12/09 09:25:01;;;;;;;10.25;6.07;;;11.80;99.90;;;;;;5015497;28;20051;-82
2021/12/09 09:27:28;;;;;;;7.78;4.88;;;11.80;99.90;;;;;;5011845;28;20050;-84
2021/12/09 09:29:57;;;;;;;9.65;5.78;;;11.80;99.90;;;;;;5020019;28;20025;-82
2021/12/09 09:32:25;;;;;;;18.15;10.95;;;11.90;99.90;;;;;;5038138;28;20030;-83
2021/12/09 09:34:54;;;;;;;24.00;14.23;;;11.90;99.90;;;;;;5036122;28;20028;-85
2021/12/09 09:37:21;;;;;;;25.90;16.90;;;11.90;99.90;;;;;;5018601;28;20424;-85
2021/12/09 09:39:49;;;;;;;30.92;18.27;;;12.00;99.90;;;;;;5037898;28;20050;-83
2021/12/09 09:42:34;;;;;;;20.73;14.60;;;12.00;99.90;;;;;;5003105;28;20053;-84
2021/12/09 09:45:03;;;;;;;19.92;11.63;;;12.10;99.90;;;;;;5003897;28;20125;-84
2021/12/09 09:47:31;;;;;;;24.65;14.75;;;12.10;99.90;;;;;;5004943;28;20408;-84
2021/12/09 09:49:59;;;;;;;29.65;17.80;;;12.10;99.90;;;;;;5023341;28;20050;-85
2021/12/09 09:52:27;;;;;;;23.40;13.95;;;12.10;99.90;;;;;;5006469;28;20061;-85
2021/12/09 09:54:56;;;;;;;21.25;13.55;;;12.10;99.90;;;;;;5007260;28;20046;-85
2021/12/09 09:57:25;;;;;;;23.15;16.10;;;12.10;99.90;;;;;;5012525;28;20496;-81
2021/12/09 09:59:52;;;;;;;26.83;16.45;;;12.10;99.90;;;;;;5032891;28;20050;-80
2021/12/09 10:02:21;;;;;;;34.63;22.35;;;12.00;99.90;;;;;;5012894;28;20038;-86
2021/12/09 10:04:57;;;;;;;36.97;22.83;;;12.00;99.90;;;;;;5034116;28;20040;-84
2021/12/09 10:07:25;;;;;;;31.73;19.58;;;11.80;99.90;;;;;;5014947;28;20598;-86
2021/12/09 10:09:54;;;;;;;31.92;19.98;;;11.80;99.90;;;;;;5001438;28;20054;-84
2021/12/09 10:12:21;;;;;;;25.60;15.65;;;11.80;99.90;;;;;;5008104;28;20050;-85
2021/12/09 10:14:51;;;;;;;17.83;12.27;;;11.80;99.90;;;;;;5023951;28;20046;-85
2021/12/09 10:17:23;;;;;;;17.50;10.88;;;11.90;99.90;;;;;;5019882;28;20050;-83
2021/12/09 10:19:52;;;;;;;13.15;8.63;;;12.10;99.90;;;;;;5019722;28;20045;-83
2021/12/09 10:22:22;;;;;;;10.93;7.40;;;12.20;99.90;;;;;;5022315;28;20061;-82
2021/12/09 10:24:54;;;;;;;15.40;8.77;;;12.40;99.90;;;;;;5001772;28;20046;-82
2021/12/09 10:27:27;;;;;;;13.88;9.73;;;12.50;99.90;;;;;;5029063;28;20022;-83
2021/12/09 10:30:00;;;;;;;13.55;8.15;;;12.50;99.90;;;;;;5040370;28;20052;-81
2021/12/09 10:32:33;;;;;;;15.48;9.23;;;12.60;99.90;;;;;;5036925;28;20092;-81
2021/12/09 10:35:05;;;;;;;17.65;10.20;;;12.70;99.90;;;;;;5011317;28;20091;-83
2021/12/09 10:37:35;;;;;;;14.40;8.88;;;12.70;99.90;;;;;;5026531;28;20048;-82
2021/12/09 10:40:06;;;;;;;16.88;10.68;;;12.80;99.90;;;;;;5020663;28;20041;-82
2021/12/09 10:42:35;;;;;;;18.27;10.90;;;12.90;99.90;;;;;;5004587;28;20054;-83
2021/12/09 10:45:07;;;;;;;11.00;7.72;;;12.90;99.90;;;;;;5002943;28;20100;-82
2021/12/09 10:47:52;;;;;;;8.65;5.82;;;12.80;99.90;;;;;;5027676;28;20046;-82
2021/12/09 10:50:29;;;;;;;10.25;5.97;;;12.80;99.90;;;;;;5029714;28;20046;-83
2021/12/09 10:53:03;;;;;;;11.45;6.25;;;12.70;99.90;;;;;;5024955;28;20501;-83
2021/12/09 10:55:33;;;;;;;14.40;8.85;;;12.60;99.90;;;;;;5017965;28;20192;-81
2021/12/09 10:58:07;;;;;;;13.90;7.85;;;12.60;99.90;;;;;;5020487;28;20042;-81
2021/12/09 11:00:44;;;;;;;18.45;10.80;;;12.50;99.90;;;;;;5020161;28;20120;-81
2021/12/09 11:03:17;;;;;;;18.60;12.10;;;12.50;99.90;;;;;;5019693;28;20067;-81
2021/12/09 11:05:48;;;;;;;20.73;12.20;;;12.50;99.90;;;;;;5020596;28;20428;-82
2021/12/09 11:08:18;;;;;;;21.17;11.93;;;12.50;99.90;;;;;;5031982;28;20125;-84
2021/12/09 11:10:48;;;;;;;20.70;12.32;;;12.50;99.90;;;;;;5039565;28;20041;-83
2021/12/09 11:13:19;;;;;;;23.27;12.43;;;12.50;99.90;;;;;;5009177;28;20073;-83
2021/12/09 11:15:54;;;;;;;22.77;13.15;;;12.50;99.90;;;;;;5019861;28;20062;-82
2021/12/09 11:18:34;;;;;;;34.85;22.67;;;12.30;99.90;;;;;;5021042;28;20071;-82
2021/12/09 11:21:05;;;;;;;20.85;12.98;;;12.30;99.90;;;;;;5020848;28;20065;-83
2021/12/09 11:23:47;;;;;;;26.38;16.67;;;12.20;99.90;;;;;;5020492;28;20092;-82
2021/12/09 11:26:55;;;;;;;20.25;13.93;;;12.20;1.00;;;;;;5021212;28;20077;-83
2021/12/09 11:29:25;;;;;;;91.53;58.50;;;12.40;1.00;;;;;;4960826;29;20051;-85
2021/12/09 11:32:00;;;;;;;54.40;35.35;;;12.60;1.00;;;;;;4959676;29;20423;-82
2021/12/09 11:34:38;;;;;;;53.28;35.13;;;12.60;1.00;;;;;;4970166;29;20067;-83
2021/12/09 11:37:11;;;;;;;58.10;37.20;;;12.50;1.00;;;;;;4962654;28;20039;-85
2021/12/09 11:39:39;;;;;;;55.65;36.58;;;12.50;1.00;;;;;;4978159;28;20055;-85
2021/12/09 11:42:20;;;;;;;50.45;36.67;;;12.50;1.00;;;;;;4963884;28;20068;-84
2021/12/09 11:44:48;;;;;;;57.10;38.30;;;12.50;1.00;;;;;;4980011;28;20059;-85
2021/12/09 11:47:17;;;;;;;69.00;41.88;;;12.40;1.00;;;;;;4979032;28;20038;-84
2021/12/09 11:49:46;;;;;;;66.82;43.88;;;12.40;1.00;;;;;;4979610;28;20051;-83
2021/12/09 11:52:16;;;;;;;71.50;48.88;;;12.40;1.00;;;;;;4979423;28;20154;-84
2021/12/09 11:54:53;;;;;;;84.25;56.10;;;12.40;1.00;;;;;;4979251;28;20042;-83
2021/12/09 11:57:33;;;;;;;76.63;52.10;;;12.30;1.00;;;;;;4971332;28;20067;-85
2021/12/09 12:06:47;;;;;;;77.45;50.85;;;12.30;1.00;;;;;;5006097;28;20064;-82
2021/12/09 12:12:33;;;;;;;82.40;52.40;;;12.20;1.00;;;;;;5021178;28;20069;-83
2021/12/09 12:15:50;;;;;;;79.72;51.88;;;12.50;1.00;;;;;;5001494;28;20045;-84
2021/12/09 12:24:42;;;;;;;64.22;43.47;;;13.40;99.90;;;;;;5019972;28;20046;-84
2021/12/09 12:27:43;;;;;;;70.00;45.50;;;13.40;99.90;;;;;;5018327;28;20409;-85
2021/12/09 12:33:19;;;;;;;66.97;43.88;;;13.10;99.90;;;;;;5015631;28;20049;-84
2021/12/09 12:36:07;;;;;;;65.15;40.30;;;13.20;99.90;;;;;;5006838;28;20041;-84
2021/12/09 12:38:50;;;;;;;62.53;43.03;;;13.20;99.90;;;;;;5003285;28;20049;-85
2021/12/09 12:41:20;;;;;;;80.38;50.95;;;13.10;99.90;;;;;;5020327;28;20046;-85
2021/12/09 12:43:56;;;;;;;83.95;54.13;;;12.90;99.90;;;;;;5020852;28;20042;-84
2021/12/09 12:46:48;;;;;;;98.30;61.50;;;12.80;99.90;;;;;;5020669;28;20049;-84
2021/12/09 12:49:25;;;;;;;100.70;63.90;;;12.70;99.90;;;;;;5003255;28;20528;-84
2021/12/09 12:51:58;;;;;;;92.07;58.30;;;12.60;99.90;;;;;;5003711;28;20042;-84
2021/12/09 12:54:42;;;;;;;91.35;56.58;;;12.50;99.90;;;;;;4984325;28;20050;-85
2021/12/09 12:57:15;;;;;;;89.80;55.15;;;12.40;99.90;;;;;;5003843;28;20045;-84
2021/12/09 12:59:46;;;;;;;85.88;54.90;;;12.40;99.90;;;;;;5003509;28;20056;-87
2021/12/09 13:02:45;;;;;;;89.25;56.00;;;12.40;99.90;;;;;;5022460;28;20404;-83
2021/12/09 13:05:28;;;;;;;84.97;55.15;;;12.20;99.90;;;;;;5021196;28;20401;-84
2021/12/09 13:08:22;;;;;;;80.30;52.80;;;12.10;99.90;;;;;;5020330;28;20046;-84
2021/12/09 13:11:07;;;;;;;76.15;48.17;;;12.10;99.90;;;;;;5026489;28;20045;-83
2021/12/09 13:13:46;;;;;;;77.05;50.95;;;12.10;99.90;;;;;;5022027;28;20042;-85
2021/12/09 13:16:19;;;;;;;80.28;52.03;;;12.10;1.00;;;;;;5034188;28;20057;-85